sensor_id;sensor_type;location;lat;lon;timestamp;temperature;humidity
74458;SHT31;62896;51.032;3.712;2024-02-26T00:00:57;7.1;93
74458;SHT31;62896;51.032;3.712;2024-02-26T00:04:17;7.1;93
74458;SHT31;62896;51.032;3.712;2024-02-26T00:07:37;7;93
74458;SHT31;62896;51.032;3.712;2024-02-26T00:10:57;7;93
74458;SHT31;62896;51.032;3.712;2024-02-26T00:14:17;7;93
74458;SHT31;62896;51.032;3.712;2024-02-26T00:17:37;7;93
74458;SHT31;62896;51.032;3.712;2024-02-26T00:20:57;7;93
74458;SHT31;62896;51.032;3.712;2024-02-26T00:24:17;7;93
74458;SHT31;62896;51.032;3.712;2024-02-26T00:27:37;6.9;94
74458;SHT31;62896;51.032;3.712;2024-02-26T00:30:57;6.9;94
74458;SHT31;62896;51.032;3.712;2024-02-26T00:34:17;6.9;94
74458;SHT31;62896;51.032;3.712;2024-02-26T00:37:37;6.9;94
74458;SHT31;62896;51.032;3.712;2024-02-26T00:40:57;6.9;94
74458;SHT31;62896;51.032;3.712;2024-02-26T00:44:17;6.9;94
74458;SHT31;62896;51.032;3.712;2024-02-26T00:47:37;6.9;94
74458;SHT31;62896;51.032;3.712;2024-02-26T00:50:57;6.9;94
74458;SHT31;62896;51.032;3.712;2024-02-26T00:54:17;6.9;94
74458;SHT31;62896;51.032;3.712;2024-02-26T00:57:37;6.8;96
74458;SHT31;62896;51.032;3.712;2024-02-26T01:00:57;6.8;96
74458;SHT31;62896;51.032;3.712;2024-02-26T01:04:17;6.8;96
74458;SHT31;62896;51.032;3.712;2024-02-26T01:07:37;6.9;95
74458;SHT31;62896;51.032;3.712;2024-02-26T01:10:57;6.9;95
74458;SHT31;62896;51.032;3.712;2024-02-26T01:14:17;6.9;95
74458;SHT31;62896;51.032;3.712;2024-02-26T01:17:37;6.8;95
74458;SHT31;62896;51.032;3.712;2024-02-26T01:20:57;6.8;95
74458;SHT31;62896;51.032;3.712;2024-02-26T01:24:17;6.8;95
74458;SHT31;62896;51.032;3.712;2024-02-26T01:27:37;6.7;96
74458;SHT31;62896;51.032;3.712;2024-02-26T01:30:57;6.7;96
74458;SHT31;62896;51.032;3.712;2024-02-26T01:34:17;6.7;96
74458;SHT31;62896;51.032;3.712;2024-02-26T01:37:37;6.7;97
74458;SHT31;62896;51.032;3.712;2024-02-26T01:40:57;6.7;97
74458;SHT31;62896;51.032;3.712;2024-02-26T01:44:17;6.7;97
74458;SHT31;62896;51.032;3.712;2024-02-26T01:47:37;6.5;99
74458;SHT31;62896;51.032;3.712;2024-02-26T01:50:57;6.5;99
74458;SHT31;62896;51.032;3.712;2024-02-26T01:54:17;6.5;99
74458;SHT31;62896;51.032;3.712;2024-02-26T01:57:37;6.5;99
74458;SHT31;62896;51.032;3.712;2024-02-26T02:00:57;6.5;99
74458;SHT31;62896;51.032;3.712;2024-02-26T02:04:17;6.5;99
74458;SHT31;62896;51.032;3.712;2024-02-26T02:07:37;6.4;99
74458;SHT31;62896;51.032;3.712;2024-02-26T02:10:57;6.4;99
74458;SHT31;62896;51.032;3.712;2024-02-26T02:14:17;6.4;99
74458;SHT31;62896;51.032;3.712;2024-02-26T02:17:37;6.4;99
74458;SHT31;62896;51.032;3.712;2024-02-26T02:20:57;6.4;99
74458;SHT31;62896;51.032;3.712;2024-02-26T02:24:17;6.4;99
74458;SHT31;62896;51.032;3.712;2024-02-26T02:27:37;6.4;99
74458;SHT31;62896;51.032;3.712;2024-02-26T02:30:57;6.4;99
74458;SHT31;62896;51.032;3.712;2024-02-26T02:34:17;6.4;99
74458;SHT31;62896;51.032;3.712;2024-02-26T02:37:37;6.3;100
74458;SHT31;62896;51.032;3.712;2024-02-26T02:40:57;6.3;100
74458;SHT31;62896;51.032;3.712;2024-02-26T02:44:17;6.3;100
74458;SHT31;62896;51.032;3.712;2024-02-26T02:47:37;6.2;100
74458;SHT31;62896;51.032;3.712;2024-02-26T02:50:57;6.2;100
74458;SHT31;62896;51.032;3.712;2024-02-26T02:54:17;6.2;100
74458;SHT31;62896;51.032;3.712;2024-02-26T02:57:37;6.2;100
74458;SHT31;62896;51.032;3.712;2024-02-26T03:00:57;6.2;100
74458;SHT31;62896;51.032;3.712;2024-02-26T03:04:17;6.2;100
74458;SHT31;62896;51.032;3.712;2024-02-26T03:07:37;6.1;100
74458;SHT31;62896;51.032;3.712;2024-02-26T03:10:58;6.1;100
74458;SHT31;62896;51.032;3.712;2024-02-26T03:14:17;6.1;100
74458;SHT31;62896;51.032;3.712;2024-02-26T03:17:37;6;100
74458;SHT31;62896;51.032;3.712;2024-02-26T03:20:57;6;100
74458;SHT31;62896;51.032;3.712;2024-02-26T03:24:17;6;100
74458;SHT31;62896;51.032;3.712;2024-02-26T03:27:37;6;100
74458;SHT31;62896;51.032;3.712;2024-02-26T03:30:57;6;100
74458;SHT31;62896;51.032;3.712;2024-02-26T03:34:17;6;100
74458;SHT31;62896;51.032;3.712;2024-02-26T03:37:37;6;100
74458;SHT31;62896;51.032;3.712;2024-02-26T03:40:57;6;100
74458;SHT31;62896;51.032;3.712;2024-02-26T03:44:17;6;100
74458;SHT31;62896;51.032;3.712;2024-02-26T03:47:37;5.9;100
74458;SHT31;62896;51.032;3.712;2024-02-26T03:50:57;5.9;100
74458;SHT31;62896;51.032;3.712;2024-02-26T03:54:17;5.9;100
74458;SHT31;62896;51.032;3.712;2024-02-26T03:57:37;5.9;100
74458;SHT31;62896;51.032;3.712;2024-02-26T04:00:57;5.9;100
74458;SHT31;62896;51.032;3.712;2024-02-26T04:04:17;5.9;100
74458;SHT31;62896;51.032;3.712;2024-02-26T04:07:37;5.9;100
74458;SHT31;62896;51.032;3.712;2024-02-26T04:10:57;5.9;100
74458;SHT31;62896;51.032;3.712;2024-02-26T04:14:17;5.9;100
74458;SHT31;62896;51.032;3.712;2024-02-26T04:17:37;5.9;100
74458;SHT31;62896;51.032;3.712;2024-02-26T04:20:57;5.9;100
74458;SHT31;62896;51.032;3.712;2024-02-26T04:24:17;5.9;100
74458;SHT31;62896;51.032;3.712;2024-02-26T04:27:37;5.9;100
74458;SHT31;62896;51.032;3.712;2024-02-26T04:30:57;5.9;100
74458;SHT31;62896;51.032;3.712;2024-02-26T04:34:17;5.9;100
74458;SHT31;62896;51.032;3.712;2024-02-26T04:37:37;5.9;100
74458;SHT31;62896;51.032;3.712;2024-02-26T04:40:57;5.9;100
74458;SHT31;62896;51.032;3.712;2024-02-26T04:44:17;5.9;100
74458;SHT31;62896;51.032;3.712;2024-02-26T04:47:37;5.9;100
74458;SHT31;62896;51.032;3.712;2024-02-26T04:50:57;5.9;100
74458;SHT31;62896;51.032;3.712;2024-02-26T04:54:17;5.9;100
74458;SHT31;62896;51.032;3.712;2024-02-26T04:57:37;6;100
74458;SHT31;62896;51.032;3.712;2024-02-26T05:00:57;6;100
74458;SHT31;62896;51.032;3.712;2024-02-26T05:04:17;6;100
74458;SHT31;62896;51.032;3.712;2024-02-26T05:07:39;6.1;100
74458;SHT31;62896;51.032;3.712;2024-02-26T05:10:57;6.1;100
74458;SHT31;62896;51.032;3.712;2024-02-26T05:14:17;6.1;100
74458;SHT31;62896;51.032;3.712;2024-02-26T05:17:37;6.1;100
74458;SHT31;62896;51.032;3.712;2024-02-26T05:20:57;6.1;100
74458;SHT31;62896;51.032;3.712;2024-02-26T05:24:17;6.1;100
74458;SHT31;62896;51.032;3.712;2024-02-26T05:27:37;6.1;100
74458;SHT31;62896;51.032;3.712;2024-02-26T05:30:57;6.1;100
74458;SHT31;62896;51.032;3.712;2024-02-26T05:34:17;6.1;100
74458;SHT31;62896;51.032;3.712;2024-02-26T05:37:37;6.1;100
74458;SHT31;62896;51.032;3.712;2024-02-26T05:40:57;6.1;100
74458;SHT31;62896;51.032;3.712;2024-02-26T05:44:17;6.1;100
74458;SHT31;62896;51.032;3.712;2024-02-26T05:47:37;6.1;100
74458;SHT31;62896;51.032;3.712;2024-02-26T05:50:57;6.1;100
74458;SHT31;62896;51.032;3.712;2024-02-26T05:54:17;6.1;100
74458;SHT31;62896;51.032;3.712;2024-02-26T05:57:37;6.1;99
74458;SHT31;62896;51.032;3.712;2024-02-26T06:00:57;6.1;99
74458;SHT31;62896;51.032;3.712;2024-02-26T06:04:17;6.1;99
74458;SHT31;62896;51.032;3.712;2024-02-26T06:07:37;6;99
74458;SHT31;62896;51.032;3.712;2024-02-26T06:10:57;6;99
74458;SHT31;62896;51.032;3.712;2024-02-26T06:14:17;6;99
74458;SHT31;62896;51.032;3.712;2024-02-26T06:17:37;6;100
74458;SHT31;62896;51.032;3.712;2024-02-26T06:20:57;6;100
74458;SHT31;62896;51.032;3.712;2024-02-26T06:24:17;6;100
74458;SHT31;62896;51.032;3.712;2024-02-26T06:27:37;5.9;100
74458;SHT31;62896;51.032;3.712;2024-02-26T06:30:57;5.9;100
74458;SHT31;62896;51.032;3.712;2024-02-26T06:34:17;5.9;100
74458;SHT31;62896;51.032;3.712;2024-02-26T06:37:37;5.9;100
74458;SHT31;62896;51.032;3.712;2024-02-26T06:40:57;5.9;100
74458;SHT31;62896;51.032;3.712;2024-02-26T06:44:17;5.9;100
74458;SHT31;62896;51.032;3.712;2024-02-26T06:47:37;6;99
74458;SHT31;62896;51.032;3.712;2024-02-26T06:50:57;6;99
74458;SHT31;62896;51.032;3.712;2024-02-26T06:54:17;6;99
74458;SHT31;62896;51.032;3.712;2024-02-26T06:57:37;5.9;99
74458;SHT31;62896;51.032;3.712;2024-02-26T07:00:57;5.9;99
74458;SHT31;62896;51.032;3.712;2024-02-26T07:04:17;5.9;99
74458;SHT31;62896;51.032;3.712;2024-02-26T07:07:37;5.9;99
74458;SHT31;62896;51.032;3.712;2024-02-26T07:10:57;5.9;99
74458;SHT31;62896;51.032;3.712;2024-02-26T07:14:17;5.9;99
74458;SHT31;62896;51.032;3.712;2024-02-26T07:17:37;5.9;98
74458;SHT31;62896;51.032;3.712;2024-02-26T07:20:57;5.9;98
74458;SHT31;62896;51.032;3.712;2024-02-26T07:24:17;5.9;98
74458;SHT31;62896;51.032;3.712;2024-02-26T07:27:37;5.9;98
74458;SHT31;62896;51.032;3.712;2024-02-26T07:30:57;5.9;98
74458;SHT31;62896;51.032;3.712;2024-02-26T07:34:17;5.9;98
74458;SHT31;62896;51.032;3.712;2024-02-26T07:37:37;6;97
74458;SHT31;62896;51.032;3.712;2024-02-26T07:40:57;6;97
74458;SHT31;62896;51.032;3.712;2024-02-26T07:44:17;6;97
74458;SHT31;62896;51.032;3.712;2024-02-26T07:47:37;6;97
74458;SHT31;62896;51.032;3.712;2024-02-26T07:50:57;6;97
74458;SHT31;62896;51.032;3.712;2024-02-26T07:54:17;6;97
74458;SHT31;62896;51.032;3.712;2024-02-26T07:57:37;5.9;98
74458;SHT31;62896;51.032;3.712;2024-02-26T08:00:57;5.9;98
74458;SHT31;62896;51.032;3.712;2024-02-26T08:04:17;5.9;98
74458;SHT31;62896;51.032;3.712;2024-02-26T08:07:37;5.9;99
74458;SHT31;62896;51.032;3.712;2024-02-26T08:10:57;5.9;99
74458;SHT31;62896;51.032;3.712;2024-02-26T08:14:17;5.9;99
74458;SHT31;62896;51.032;3.712;2024-02-26T08:17:37;5.9;98
74458;SHT31;62896;51.032;3.712;2024-02-26T08:20:57;5.9;98
74458;SHT31;62896;51.032;3.712;2024-02-26T08:24:17;5.9;98
74458;SHT31;62896;51.032;3.712;2024-02-26T08:27:37;5.9;98
74458;SHT31;62896;51.032;3.712;2024-02-26T08:30:57;5.9;98
74458;SHT31;62896;51.032;3.712;2024-02-26T08:34:17;5.9;98
74458;SHT31;62896;51.032;3.712;2024-02-26T08:37:37;5.7;100
74458;SHT31;62896;51.032;3.712;2024-02-26T08:40:57;5.7;100
74458;SHT31;62896;51.032;3.712;2024-02-26T08:44:17;5.7;100
74458;SHT31;62896;51.032;3.712;2024-02-26T08:47:37;5.6;100
74458;SHT31;62896;51.032;3.712;2024-02-26T08:50:57;5.6;100
74458;SHT31;62896;51.032;3.712;2024-02-26T08:54:17;5.6;100
74458;SHT31;62896;51.032;3.712;2024-02-26T08:57:37;5.5;100
74458;SHT31;62896;51.032;3.712;2024-02-26T09:00:57;5.5;100
74458;SHT31;62896;51.032;3.712;2024-02-26T09:04:17;5.5;100
74458;SHT31;62896;51.032;3.712;2024-02-26T09:07:37;5.4;100
74458;SHT31;62896;51.032;3.712;2024-02-26T09:10:57;5.4;100
74458;SHT31;62896;51.032;3.712;2024-02-26T09:14:17;5.4;100
74458;SHT31;62896;51.032;3.712;2024-02-26T09:17:37;5.3;100
74458;SHT31;62896;51.032;3.712;2024-02-26T09:20:57;5.3;100
74458;SHT31;62896;51.032;3.712;2024-02-26T09:24:17;5.3;100
74458;SHT31;62896;51.032;3.712;2024-02-26T09:27:37;5.3;100
74458;SHT31;62896;51.032;3.712;2024-02-26T09:30:57;5.3;100
74458;SHT31;62896;51.032;3.712;2024-02-26T09:34:17;5.3;100
74458;SHT31;62896;51.032;3.712;2024-02-26T09:37:37;5.3;100
74458;SHT31;62896;51.032;3.712;2024-02-26T09:40:57;5.3;100
74458;SHT31;62896;51.032;3.712;2024-02-26T09:44:19;5.3;100
74458;SHT31;62896;51.032;3.712;2024-02-26T09:47:37;5.3;100
74458;SHT31;62896;51.032;3.712;2024-02-26T09:50:57;5.3;100
74458;SHT31;62896;51.032;3.712;2024-02-26T09:54:17;5.3;100
74458;SHT31;62896;51.032;3.712;2024-02-26T09:57:37;5.3;100
74458;SHT31;62896;51.032;3.712;2024-02-26T10:00:57;5.3;100
74458;SHT31;62896;51.032;3.712;2024-02-26T10:04:17;5.3;100
74458;SHT31;62896;51.032;3.712;2024-02-26T10:07:37;5.3;100
74458;SHT31;62896;51.032;3.712;2024-02-26T10:10:57;5.3;100
74458;SHT31;62896;51.032;3.712;2024-02-26T10:14:17;5.3;100
74458;SHT31;62896;51.032;3.712;2024-02-26T10:17:37;5.3;100
74458;SHT31;62896;51.032;3.712;2024-02-26T10:20:58;5.3;100
74458;SHT31;62896;51.032;3.712;2024-02-26T10:24:17;5.3;100
74458;SHT31;62896;51.032;3.712;2024-02-26T10:27:37;5.2;100
74458;SHT31;62896;51.032;3.712;2024-02-26T10:30:57;5.2;100
74458;SHT31;62896;51.032;3.712;2024-02-26T10:34:17;5.2;100
74458;SHT31;62896;51.032;3.712;2024-02-26T10:37:37;5.2;100
74458;SHT31;62896;51.032;3.712;2024-02-26T10:40:57;5.2;100
74458;SHT31;62896;51.032;3.712;2024-02-26T10:44:17;5.2;100
74458;SHT31;62896;51.032;3.712;2024-02-26T10:47:37;5.2;100
74458;SHT31;62896;51.032;3.712;2024-02-26T10:50:57;5.2;100
74458;SHT31;62896;51.032;3.712;2024-02-26T10:54:17;5.2;100
74458;SHT31;62896;51.032;3.712;2024-02-26T10:57:37;5.3;100
74458;SHT31;62896;51.032;3.712;2024-02-26T11:00:57;5.3;100
74458;SHT31;62896;51.032;3.712;2024-02-26T11:04:17;5.3;100
74458;SHT31;62896;51.032;3.712;2024-02-26T11:07:37;5.3;100
74458;SHT31;62896;51.032;3.712;2024-02-26T11:10:57;5.3;100
74458;SHT31;62896;51.032;3.712;2024-02-26T11:14:17;5.3;100
74458;SHT31;62896;51.032;3.712;2024-02-26T11:17:37;5.4;100
74458;SHT31;62896;51.032;3.712;2024-02-26T11:20:57;5.4;100
74458;SHT31;62896;51.032;3.712;2024-02-26T11:24:17;5.4;100
74458;SHT31;62896;51.032;3.712;2024-02-26T11:27:38;5.4;100
74458;SHT31;62896;51.032;3.712;2024-02-26T11:30:57;5.4;100
74458;SHT31;62896;51.032;3.712;2024-02-26T11:34:17;5.4;100
74458;SHT31;62896;51.032;3.712;2024-02-26T11:37:37;5.5;100
74458;SHT31;62896;51.032;3.712;2024-02-26T11:40:57;5.5;100
74458;SHT31;62896;51.032;3.712;2024-02-26T11:44:28;5.5;100
74458;SHT31;62896;51.032;3.712;2024-02-26T11:47:37;5.5;100
74458;SHT31;62896;51.032;3.712;2024-02-26T11:50:57;5.5;100
74458;SHT31;62896;51.032;3.712;2024-02-26T11:54:36;5.5;100
74458;SHT31;62896;51.032;3.712;2024-02-26T11:57:38;5.5;100
74458;SHT31;62896;51.032;3.712;2024-02-26T12:00:57;5.5;100
74458;SHT31;62896;51.032;3.712;2024-02-26T12:04:18;5.5;100
74458;SHT31;62896;51.032;3.712;2024-02-26T12:07:39;5.5;100
74458;SHT31;62896;51.032;3.712;2024-02-26T12:10:57;5.5;100
74458;SHT31;62896;51.032;3.712;2024-02-26T12:14:17;5.5;100
74458;SHT31;62896;51.032;3.712;2024-02-26T12:17:37;5.6;100
74458;SHT31;62896;51.032;3.712;2024-02-26T12:20:58;5.6;100
74458;SHT31;62896;51.032;3.712;2024-02-26T12:24:17;5.6;100
74458;SHT31;62896;51.032;3.712;2024-02-26T12:27:37;5.5;100
74458;SHT31;62896;51.032;3.712;2024-02-26T12:30:57;5.5;100
74458;SHT31;62896;51.032;3.712;2024-02-26T12:34:17;5.5;100
74458;SHT31;62896;51.032;3.712;2024-02-26T12:37:37;5.5;100
74458;SHT31;62896;51.032;3.712;2024-02-26T12:40:57;5.5;100
74458;SHT31;62896;51.032;3.712;2024-02-26T12:44:17;5.5;100
74458;SHT31;62896;51.032;3.712;2024-02-26T12:47:37;5.5;100
74458;SHT31;62896;51.032;3.712;2024-02-26T12:50:57;5.5;100
74458;SHT31;62896;51.032;3.712;2024-02-26T12:54:17;5.5;100
74458;SHT31;62896;51.032;3.712;2024-02-26T12:57:37;5.5;100
74458;SHT31;62896;51.032;3.712;2024-02-26T13:00:57;5.5;100
74458;SHT31;62896;51.032;3.712;2024-02-26T13:04:17;5.5;100
74458;SHT31;62896;51.032;3.712;2024-02-26T13:07:40;5.6;100
74458;SHT31;62896;51.032;3.712;2024-02-26T13:10:58;5.6;100
74458;SHT31;62896;51.032;3.712;2024-02-26T13:14:19;5.6;100
74458;SHT31;62896;51.032;3.712;2024-02-26T13:17:37;5.6;100
74458;SHT31;62896;51.032;3.712;2024-02-26T13:21:06;5.6;100
74458;SHT31;62896;51.032;3.712;2024-02-26T13:24:20;5.6;100
74458;SHT31;62896;51.032;3.712;2024-02-26T13:27:37;5.6;100
74458;SHT31;62896;51.032;3.712;2024-02-26T13:30:57;5.6;100
74458;SHT31;62896;51.032;3.712;2024-02-26T13:34:22;5.6;100
74458;SHT31;62896;51.032;3.712;2024-02-26T13:37:37;5.6;100
74458;SHT31;62896;51.032;3.712;2024-02-26T13:40:57;5.6;100
74458;SHT31;62896;51.032;3.712;2024-02-26T13:44:17;5.6;100
74458;SHT31;62896;51.032;3.712;2024-02-26T13:47:37;5.6;100
74458;SHT31;62896;51.032;3.712;2024-02-26T13:50:57;5.6;100
74458;SHT31;62896;51.032;3.712;2024-02-26T13:54:17;5.6;100
74458;SHT31;62896;51.032;3.712;2024-02-26T13:57:37;5.6;100
74458;SHT31;62896;51.032;3.712;2024-02-26T14:00:57;5.6;100
74458;SHT31;62896;51.032;3.712;2024-02-26T14:04:17;5.6;100
74458;SHT31;62896;51.032;3.712;2024-02-26T14:07:37;5.6;100
74458;SHT31;62896;51.032;3.712;2024-02-26T14:10:57;5.6;100
74458;SHT31;62896;51.032;3.712;2024-02-26T14:14:17;5.6;100
74458;SHT31;62896;51.032;3.712;2024-02-26T14:17:37;5.6;100
74458;SHT31;62896;51.032;3.712;2024-02-26T14:20:57;5.6;100
74458;SHT31;62896;51.032;3.712;2024-02-26T14:24:17;5.6;100
74458;SHT31;62896;51.032;3.712;2024-02-26T14:27:37;5.7;100
74458;SHT31;62896;51.032;3.712;2024-02-26T14:30:57;5.7;100
74458;SHT31;62896;51.032;3.712;2024-02-26T14:34:17;5.7;100
74458;SHT31;62896;51.032;3.712;2024-02-26T14:37:37;5.6;100
74458;SHT31;62896;51.032;3.712;2024-02-26T14:40:57;5.6;100
74458;SHT31;62896;51.032;3.712;2024-02-26T14:44:17;5.6;100
74458;SHT31;62896;51.032;3.712;2024-02-26T14:47:37;5.7;100
74458;SHT31;62896;51.032;3.712;2024-02-26T14:50:57;5.7;100
74458;SHT31;62896;51.032;3.712;2024-02-26T14:54:17;5.7;100
74458;SHT31;62896;51.032;3.712;2024-02-26T14:57:37;5.7;100
74458;SHT31;62896;51.032;3.712;2024-02-26T15:00:57;5.7;100
74458;SHT31;62896;51.032;3.712;2024-02-26T15:04:17;5.7;100
74458;SHT31;62896;51.032;3.712;2024-02-26T15:07:37;5.8;100
74458;SHT31;62896;51.032;3.712;2024-02-26T15:10:57;5.8;100
74458;SHT31;62896;51.032;3.712;2024-02-26T15:14:17;5.8;100
74458;SHT31;62896;51.032;3.712;2024-02-26T15:17:37;5.7;100
74458;SHT31;62896;51.032;3.712;2024-02-26T15:20:57;5.7;100
74458;SHT31;62896;51.032;3.712;2024-02-26T15:24:17;5.7;100
74458;SHT31;62896;51.032;3.712;2024-02-26T15:27:37;5.7;100
74458;SHT31;62896;51.032;3.712;2024-02-26T15:30:57;5.7;100
74458;SHT31;62896;51.032;3.712;2024-02-26T15:34:17;5.7;100
74458;SHT31;62896;51.032;3.712;2024-02-26T15:37:37;5.7;100
74458;SHT31;62896;51.032;3.712;2024-02-26T15:40:57;5.7;100
74458;SHT31;62896;51.032;3.712;2024-02-26T15:44:17;5.7;100
74458;SHT31;62896;51.032;3.712;2024-02-26T15:47:37;5.7;100
74458;SHT31;62896;51.032;3.712;2024-02-26T15:50:57;5.7;100
74458;SHT31;62896;51.032;3.712;2024-02-26T15:54:17;5.7;100
74458;SHT31;62896;51.032;3.712;2024-02-26T15:57:37;5.6;100
74458;SHT31;62896;51.032;3.712;2024-02-26T16:00:57;5.6;100
74458;SHT31;62896;51.032;3.712;2024-02-26T16:04:17;5.6;100
74458;SHT31;62896;51.032;3.712;2024-02-26T16:07:38;5.6;100
74458;SHT31;62896;51.032;3.712;2024-02-26T16:10:58;5.6;100
74458;SHT31;62896;51.032;3.712;2024-02-26T16:14:21;5.6;100
74458;SHT31;62896;51.032;3.712;2024-02-26T16:17:38;5.6;100
74458;SHT31;62896;51.032;3.712;2024-02-26T16:20:57;5.6;100
74458;SHT31;62896;51.032;3.712;2024-02-26T16:24:17;5.6;100
74458;SHT31;62896;51.032;3.712;2024-02-26T16:27:37;5.6;100
74458;SHT31;62896;51.032;3.712;2024-02-26T16:30:57;5.6;100
74458;SHT31;62896;51.032;3.712;2024-02-26T16:34:17;5.6;100
74458;SHT31;62896;51.032;3.712;2024-02-26T16:37:37;5.6;100
74458;SHT31;62896;51.032;3.712;2024-02-26T16:40:57;5.6;100
74458;SHT31;62896;51.032;3.712;2024-02-26T16:44:17;5.6;100
74458;SHT31;62896;51.032;3.712;2024-02-26T16:47:37;5.6;100
74458;SHT31;62896;51.032;3.712;2024-02-26T16:50:57;5.6;100
74458;SHT31;62896;51.032;3.712;2024-02-26T16:54:17;5.6;100
74458;SHT31;62896;51.032;3.712;2024-02-26T16:57:37;5.6;100
74458;SHT31;62896;51.032;3.712;2024-02-26T17:00:57;5.6;100
74458;SHT31;62896;51.032;3.712;2024-02-26T17:04:17;5.6;100
74458;SHT31;62896;51.032;3.712;2024-02-26T17:07:37;5.6;100
74458;SHT31;62896;51.032;3.712;2024-02-26T17:10:57;5.6;100
74458;SHT31;62896;51.032;3.712;2024-02-26T17:14:17;5.6;100
74458;SHT31;62896;51.032;3.712;2024-02-26T17:17:37;5.6;100
74458;SHT31;62896;51.032;3.712;2024-02-26T17:20:57;5.6;100
74458;SHT31;62896;51.032;3.712;2024-02-26T17:24:17;5.6;100
74458;SHT31;62896;51.032;3.712;2024-02-26T17:27:37;5.7;100
74458;SHT31;62896;51.032;3.712;2024-02-26T17:30:57;5.7;100
74458;SHT31;62896;51.032;3.712;2024-02-26T17:34:17;5.7;100
74458;SHT31;62896;51.032;3.712;2024-02-26T17:37:37;5.7;100
74458;SHT31;62896;51.032;3.712;2024-02-26T17:40:57;5.7;100
74458;SHT31;62896;51.032;3.712;2024-02-26T17:44:17;5.7;100
74458;SHT31;62896;51.032;3.712;2024-02-26T17:47:37;5.8;100
74458;SHT31;62896;51.032;3.712;2024-02-26T17:50:57;5.8;100
74458;SHT31;62896;51.032;3.712;2024-02-26T17:54:17;5.8;100
74458;SHT31;62896;51.032;3.712;2024-02-26T17:57:37;5.8;100
74458;SHT31;62896;51.032;3.712;2024-02-26T18:00:57;5.8;100
74458;SHT31;62896;51.032;3.712;2024-02-26T18:04:17;5.8;100
74458;SHT31;62896;51.032;3.712;2024-02-26T18:07:37;5.8;100
74458;SHT31;62896;51.032;3.712;2024-02-26T18:10:57;5.8;100
74458;SHT31;62896;51.032;3.712;2024-02-26T18:14:17;5.8;100
74458;SHT31;62896;51.032;3.712;2024-02-26T18:17:37;5.8;100
74458;SHT31;62896;51.032;3.712;2024-02-26T18:20:57;5.8;100
74458;SHT31;62896;51.032;3.712;2024-02-26T18:24:17;5.8;100
74458;SHT31;62896;51.032;3.712;2024-02-26T18:27:37;5.8;100
74458;SHT31;62896;51.032;3.712;2024-02-26T18:30:57;5.8;100
74458;SHT31;62896;51.032;3.712;2024-02-26T18:34:18;5.8;100
74458;SHT31;62896;51.032;3.712;2024-02-26T18:37:37;5.8;100
74458;SHT31;62896;51.032;3.712;2024-02-26T18:40:57;5.8;100
74458;SHT31;62896;51.032;3.712;2024-02-26T18:44:17;5.8;100
74458;SHT31;62896;51.032;3.712;2024-02-26T18:47:37;5.7;100
74458;SHT31;62896;51.032;3.712;2024-02-26T18:50:57;5.7;100
74458;SHT31;62896;51.032;3.712;2024-02-26T18:54:17;5.7;100
74458;SHT31;62896;51.032;3.712;2024-02-26T18:57:37;5.7;100
74458;SHT31;62896;51.032;3.712;2024-02-26T19:00:57;5.7;100
74458;SHT31;62896;51.032;3.712;2024-02-26T19:04:17;5.7;100
74458;SHT31;62896;51.032;3.712;2024-02-26T19:07:37;5.7;100
74458;SHT31;62896;51.032;3.712;2024-02-26T19:10:57;5.7;100
74458;SHT31;62896;51.032;3.712;2024-02-26T19:14:17;5.7;100
74458;SHT31;62896;51.032;3.712;2024-02-26T19:17:37;5.9;100
74458;SHT31;62896;51.032;3.712;2024-02-26T19:20:57;5.9;100
74458;SHT31;62896;51.032;3.712;2024-02-26T19:24:17;5.9;100
74458;SHT31;62896;51.032;3.712;2024-02-26T19:27:37;6;99
74458;SHT31;62896;51.032;3.712;2024-02-26T19:30:57;6;99
74458;SHT31;62896;51.032;3.712;2024-02-26T19:34:17;6;99
74458;SHT31;62896;51.032;3.712;2024-02-26T19:37:37;6.1;93
74458;SHT31;62896;51.032;3.712;2024-02-26T19:40:57;6.1;93
74458;SHT31;62896;51.032;3.712;2024-02-26T19:44:17;6.1;93
74458;SHT31;62896;51.032;3.712;2024-02-26T19:47:37;6.1;92
74458;SHT31;62896;51.032;3.712;2024-02-26T19:50:57;6.1;92
74458;SHT31;62896;51.032;3.712;2024-02-26T19:54:17;6.1;92
74458;SHT31;62896;51.032;3.712;2024-02-26T19:57:37;6.1;91
74458;SHT31;62896;51.032;3.712;2024-02-26T20:00:57;6.1;91
74458;SHT31;62896;51.032;3.712;2024-02-26T20:04:17;6.1;91
74458;SHT31;62896;51.032;3.712;2024-02-26T20:07:37;6;90
74458;SHT31;62896;51.032;3.712;2024-02-26T20:10:57;6;90
74458;SHT31;62896;51.032;3.712;2024-02-26T20:14:17;6;90
74458;SHT31;62896;51.032;3.712;2024-02-26T20:17:37;6;91
74458;SHT31;62896;51.032;3.712;2024-02-26T20:20:57;6;91
74458;SHT31;62896;51.032;3.712;2024-02-26T20:24:17;6;91
74458;SHT31;62896;51.032;3.712;2024-02-26T20:27:37;6;90
74458;SHT31;62896;51.032;3.712;2024-02-26T20:30:57;6;90
74458;SHT31;62896;51.032;3.712;2024-02-26T20:34:17;6;90
74458;SHT31;62896;51.032;3.712;2024-02-26T20:37:37;5.9;90
74458;SHT31;62896;51.032;3.712;2024-02-26T20:40:57;5.9;90
74458;SHT31;62896;51.032;3.712;2024-02-26T20:44:17;5.9;90
74458;SHT31;62896;51.032;3.712;2024-02-26T20:47:37;5.8;90
74458;SHT31;62896;51.032;3.712;2024-02-26T20:50:57;5.8;90
74458;SHT31;62896;51.032;3.712;2024-02-26T20:54:17;5.8;90
74458;SHT31;62896;51.032;3.712;2024-02-26T20:57:37;5.7;90
74458;SHT31;62896;51.032;3.712;2024-02-26T21:00:57;5.7;90
74458;SHT31;62896;51.032;3.712;2024-02-26T21:04:17;5.7;90
74458;SHT31;62896;51.032;3.712;2024-02-26T21:07:38;5.7;90
74458;SHT31;62896;51.032;3.712;2024-02-26T21:10:57;5.7;90
74458;SHT31;62896;51.032;3.712;2024-02-26T21:14:17;5.7;90
74458;SHT31;62896;51.032;3.712;2024-02-26T21:17:37;5.7;90
74458;SHT31;62896;51.032;3.712;2024-02-26T21:20:57;5.7;90
74458;SHT31;62896;51.032;3.712;2024-02-26T21:24:18;5.7;90
74458;SHT31;62896;51.032;3.712;2024-02-26T21:27:37;5.7;89
74458;SHT31;62896;51.032;3.712;2024-02-26T21:30:57;5.7;89
74458;SHT31;62896;51.032;3.712;2024-02-26T21:34:17;5.7;89
74458;SHT31;62896;51.032;3.712;2024-02-26T21:37:37;5.7;90
74458;SHT31;62896;51.032;3.712;2024-02-26T21:40:57;5.7;90
74458;SHT31;62896;51.032;3.712;2024-02-26T21:44:17;5.7;90
74458;SHT31;62896;51.032;3.712;2024-02-26T21:47:37;5.7;90
74458;SHT31;62896;51.032;3.712;2024-02-26T21:50:57;5.7;90
74458;SHT31;62896;51.032;3.712;2024-02-26T21:54:17;5.7;90
74458;SHT31;62896;51.032;3.712;2024-02-26T21:57:37;5.6;90
74458;SHT31;62896;51.032;3.712;2024-02-26T22:00:57;5.6;90
74458;SHT31;62896;51.032;3.712;2024-02-26T22:04:18;5.6;90
74458;SHT31;62896;51.032;3.712;2024-02-26T22:07:38;5.6;90
74458;SHT31;62896;51.032;3.712;2024-02-26T22:10:57;5.6;90
74458;SHT31;62896;51.032;3.712;2024-02-26T22:14:17;5.6;90
74458;SHT31;62896;51.032;3.712;2024-02-26T22:17:38;5.6;90
74458;SHT31;62896;51.032;3.712;2024-02-26T22:20:57;5.6;90
74458;SHT31;62896;51.032;3.712;2024-02-26T22:24:17;5.6;90
74458;SHT31;62896;51.032;3.712;2024-02-26T22:27:37;5.6;90
74458;SHT31;62896;51.032;3.712;2024-02-26T22:30:57;5.6;90
74458;SHT31;62896;51.032;3.712;2024-02-26T22:34:17;5.6;90
74458;SHT31;62896;51.032;3.712;2024-02-26T22:37:37;5.7;89
74458;SHT31;62896;51.032;3.712;2024-02-26T22:40:57;5.7;89